CheckWX is a tool to help pilots better visualize weather data.  It is not intended as a substitute for an official pre-flight weather briefing.

15:16:56 UTC

1P1 METAR
Plymouth Municipal Airport
Plymouth, New Hampshire, USA
Current

42 mins ago

K1P1 201435Z AUTO 00000KT 10SM BKN075 OVC100 18/16 A2972 RMK AO2 T01800163
Observed
May-20 @ 14:35 UTC
Visibility
10 SM
Flight Rules
VFR
Cloud Levels
  • Broken at 7,500' AGL
  • Overcast at 10,000' AGL
Temperature
18°C / 64°F
Dewpoint
16°C / 61°F
Humidity
88%
Altimeter
29.72" Hg
Pressure
1006.42 hPa
Previous

1 hour ago

K1P1 201415Z AUTO 00000KT 10SM SCT075 OVC100 18/16 A2973 RMK AO2 T01770161
Observed
May-20 @ 14:15 UTC
Visibility
10 SM
Flight Rules
VFR
Cloud Levels
  • Scattered at 7,500' AGL
  • Overcast at 10,000' AGL
Temperature
18°C / 64°F
Dewpoint
16°C / 61°F
Humidity
88%
Altimeter
29.73" Hg
Pressure
1006.82 hPa
Previous

1 hour ago

K1P1 201355Z AUTO 00000KT 10SM SCT001 SCT075 BKN100 17/16 A2973 RMK AO2 T01710159
Observed
May-20 @ 13:55 UTC
Visibility
10 SM
Flight Rules
VFR
Cloud Levels
  • Scattered at 100' AGL
  • Scattered at 7,500' AGL
  • Broken at 10,000' AGL
Temperature
17°C / 63°F
Dewpoint
16°C / 61°F
Humidity
94%
Altimeter
29.73" Hg
Pressure
1006.82 hPa